sensor_id;sensor_type;location;lat;lon;timestamp;P1;durP1;ratioP1;P2;durP2;ratioP2
54665;SDS011;40566;50.006;36.180;2024-03-02T00:04:54;16.55;;;6.50;;
54665;SDS011;40566;50.006;36.180;2024-03-02T00:10:19;15.02;;;5.40;;
54665;SDS011;40566;50.006;36.180;2024-03-02T00:21:01;7.00;;;3.50;;
54665;SDS011;40566;50.006;36.180;2024-03-02T00:26:21;17.95;;;5.28;;
54665;SDS011;40566;50.006;36.180;2024-03-02T00:31:40;17.10;;;6.13;;
54665;SDS011;40566;50.006;36.180;2024-03-02T00:37:00;14.20;;;4.90;;
54665;SDS011;40566;50.006;36.180;2024-03-02T00:42:19;8.82;;;2.63;;
54665;SDS011;40566;50.006;36.180;2024-03-02T00:47:38;11.15;;;4.15;;
54665;SDS011;40566;50.006;36.180;2024-03-02T00:52:57;13.52;;;5.90;;
54665;SDS011;40566;50.006;36.180;2024-03-02T00:58:16;9.85;;;4.18;;
54665;SDS011;40566;50.006;36.180;2024-03-02T01:03:35;13.00;;;4.70;;
54665;SDS011;40566;50.006;36.180;2024-03-02T01:08:55;13.73;;;4.45;;
54665;SDS011;40566;50.006;36.180;2024-03-02T01:14:14;13.30;;;4.35;;
54665;SDS011;40566;50.006;36.180;2024-03-02T01:19:33;4.95;;;2.25;;
54665;SDS011;40566;50.006;36.180;2024-03-02T01:24:52;8.70;;;3.88;;
54665;SDS011;40566;50.006;36.180;2024-03-02T01:30:11;16.45;;;4.20;;
54665;SDS011;40566;50.006;36.180;2024-03-02T01:35:30;9.60;;;3.65;;
54665;SDS011;40566;50.006;36.180;2024-03-02T01:40:49;9.43;;;3.63;;
54665;SDS011;40566;50.006;36.180;2024-03-02T01:46:09;8.88;;;3.05;;
54665;SDS011;40566;50.006;36.180;2024-03-02T01:51:28;8.85;;;2.90;;
54665;SDS011;40566;50.006;36.180;2024-03-02T01:56:47;11.93;;;3.22;;
54665;SDS011;40566;50.006;36.180;2024-03-02T02:02:06;7.00;;;2.50;;
54665;SDS011;40566;50.006;36.180;2024-03-02T02:07:26;8.13;;;3.45;;
54665;SDS011;40566;50.006;36.180;2024-03-02T02:12:45;8.15;;;2.58;;
54665;SDS011;40566;50.006;36.180;2024-03-02T02:18:04;5.47;;;1.95;;
54665;SDS011;40566;50.006;36.180;2024-03-02T02:23:23;3.45;;;1.45;;
54665;SDS011;40566;50.006;36.180;2024-03-02T02:28:42;4.63;;;2.15;;
54665;SDS011;40566;50.006;36.180;2024-03-02T02:34:05;6.45;;;2.22;;
54665;SDS011;40566;50.006;36.180;2024-03-02T02:39:25;5.97;;;2.67;;
54665;SDS011;40566;50.006;36.180;2024-03-02T02:44:44;11.38;;;2.55;;
54665;SDS011;40566;50.006;36.180;2024-03-02T02:50:03;4.13;;;2.17;;
54665;SDS011;40566;50.006;36.180;2024-03-02T02:55:23;5.47;;;2.38;;
54665;SDS011;40566;50.006;36.180;2024-03-02T03:06:01;3.35;;;1.42;;
54665;SDS011;40566;50.006;36.180;2024-03-02T03:11:20;6.95;;;2.50;;
54665;SDS011;40566;50.006;36.180;2024-03-02T03:16:41;4.57;;;1.70;;
54665;SDS011;40566;50.006;36.180;2024-03-02T03:22:00;3.15;;;1.63;;
54665;SDS011;40566;50.006;36.180;2024-03-02T03:32:41;2.90;;;1.35;;
54665;SDS011;40566;50.006;36.180;2024-03-02T03:38:00;2.05;;;1.00;;
54665;SDS011;40566;50.006;36.180;2024-03-02T03:43:18;5.25;;;2.50;;
54665;SDS011;40566;50.006;36.180;2024-03-02T03:48:37;3.90;;;2.05;;
54665;SDS011;40566;50.006;36.180;2024-03-02T03:53:56;3.00;;;1.73;;
54665;SDS011;40566;50.006;36.180;2024-03-02T03:59:15;8.60;;;1.95;;
54665;SDS011;40566;50.006;36.180;2024-03-02T04:04:35;14.25;;;2.72;;
54665;SDS011;40566;50.006;36.180;2024-03-02T04:09:54;4.45;;;1.88;;
54665;SDS011;40566;50.006;36.180;2024-03-02T04:15:13;3.53;;;2.15;;
54665;SDS011;40566;50.006;36.180;2024-03-02T04:20:32;1.83;;;1.25;;
54665;SDS011;40566;50.006;36.180;2024-03-02T04:25:51;6.38;;;1.58;;
54665;SDS011;40566;50.006;36.180;2024-03-02T04:31:10;5.45;;;2.63;;
54665;SDS011;40566;50.006;36.180;2024-03-02T04:36:29;4.15;;;1.98;;
54665;SDS011;40566;50.006;36.180;2024-03-02T04:41:48;5.22;;;1.70;;
54665;SDS011;40566;50.006;36.180;2024-03-02T04:47:07;7.78;;;2.45;;
54665;SDS011;40566;50.006;36.180;2024-03-02T04:52:26;5.88;;;2.03;;
54665;SDS011;40566;50.006;36.180;2024-03-02T04:57:45;7.93;;;3.15;;
54665;SDS011;40566;50.006;36.180;2024-03-02T05:03:05;31.95;;;2.03;;
54665;SDS011;40566;50.006;36.180;2024-03-02T05:08:24;15.38;;;2.95;;
54665;SDS011;40566;50.006;36.180;2024-03-02T05:13:43;4.28;;;1.95;;
54665;SDS011;40566;50.006;36.180;2024-03-02T05:19:02;3.65;;;1.95;;
54665;SDS011;40566;50.006;36.180;2024-03-02T05:24:21;8.57;;;2.20;;
54665;SDS011;40566;50.006;36.180;2024-03-02T05:29:40;6.43;;;2.80;;
54665;SDS011;40566;50.006;36.180;2024-03-02T05:34:59;6.50;;;2.95;;
54665;SDS011;40566;50.006;36.180;2024-03-02T05:40:18;8.15;;;3.10;;
54665;SDS011;40566;50.006;36.180;2024-03-02T05:45:37;5.97;;;3.35;;
54665;SDS011;40566;50.006;36.180;2024-03-02T05:50:56;5.95;;;2.50;;
54665;SDS011;40566;50.006;36.180;2024-03-02T05:56:15;5.10;;;2.13;;
54665;SDS011;40566;50.006;36.180;2024-03-02T06:01:34;3.92;;;1.58;;
54665;SDS011;40566;50.006;36.180;2024-03-02T06:06:53;5.30;;;2.03;;
54665;SDS011;40566;50.006;36.180;2024-03-02T06:12:13;2.95;;;1.70;;
54665;SDS011;40566;50.006;36.180;2024-03-02T06:17:32;5.60;;;2.17;;
54665;SDS011;40566;50.006;36.180;2024-03-02T06:22:50;4.55;;;1.80;;
54665;SDS011;40566;50.006;36.180;2024-03-02T06:28:09;6.95;;;2.78;;
54665;SDS011;40566;50.006;36.180;2024-03-02T06:33:28;11.07;;;2.97;;
54665;SDS011;40566;50.006;36.180;2024-03-02T06:38:47;4.63;;;1.75;;
54665;SDS011;40566;50.006;36.180;2024-03-02T06:44:06;28.30;;;3.22;;
54665;SDS011;40566;50.006;36.180;2024-03-02T06:49:25;4.80;;;2.50;;
54665;SDS011;40566;50.006;36.180;2024-03-02T06:54:44;7.20;;;2.75;;
54665;SDS011;40566;50.006;36.180;2024-03-02T07:00:04;8.38;;;2.58;;
54665;SDS011;40566;50.006;36.180;2024-03-02T07:05:23;12.70;;;3.28;;
54665;SDS011;40566;50.006;36.180;2024-03-02T07:10:42;7.00;;;2.85;;
54665;SDS011;40566;50.006;36.180;2024-03-02T07:16:01;41.28;;;3.97;;
54665;SDS011;40566;50.006;36.180;2024-03-02T07:21:21;6.63;;;2.03;;
54665;SDS011;40566;50.006;36.180;2024-03-02T07:26:41;14.68;;;2.72;;
54665;SDS011;40566;50.006;36.180;2024-03-02T07:32:00;6.85;;;1.67;;
54665;SDS011;40566;50.006;36.180;2024-03-02T07:37:19;11.88;;;2.70;;
54665;SDS011;40566;50.006;36.180;2024-03-02T07:42:39;10.32;;;2.97;;
54665;SDS011;40566;50.006;36.180;2024-03-02T07:47:59;5.95;;;1.77;;
54665;SDS011;40566;50.006;36.180;2024-03-02T07:53:18;12.55;;;3.17;;
54665;SDS011;40566;50.006;36.180;2024-03-02T07:58:36;9.98;;;1.88;;
54665;SDS011;40566;50.006;36.180;2024-03-02T08:03:59;11.52;;;2.42;;
54665;SDS011;40566;50.006;36.180;2024-03-02T08:09:19;20.02;;;2.58;;
54665;SDS011;40566;50.006;36.180;2024-03-02T08:14:38;13.00;;;3.45;;
54665;SDS011;40566;50.006;36.180;2024-03-02T08:19:57;20.98;;;5.45;;
54665;SDS011;40566;50.006;36.180;2024-03-02T08:25:17;10.27;;;3.38;;
54665;SDS011;40566;50.006;36.180;2024-03-02T08:30:36;10.95;;;3.50;;
54665;SDS011;40566;50.006;36.180;2024-03-02T08:35:55;14.30;;;3.38;;
54665;SDS011;40566;50.006;36.180;2024-03-02T08:41:14;15.40;;;2.50;;
54665;SDS011;40566;50.006;36.180;2024-03-02T08:46:34;18.58;;;3.55;;
54665;SDS011;40566;50.006;36.180;2024-03-02T08:51:54;19.88;;;3.63;;
54665;SDS011;40566;50.006;36.180;2024-03-02T08:57:13;20.15;;;6.20;;
54665;SDS011;40566;50.006;36.180;2024-03-02T09:02:32;22.42;;;4.15;;
54665;SDS011;40566;50.006;36.180;2024-03-02T09:07:51;17.33;;;4.18;;
54665;SDS011;40566;50.006;36.180;2024-03-02T09:13:10;18.80;;;4.53;;
54665;SDS011;40566;50.006;36.180;2024-03-02T09:18:30;17.15;;;4.45;;
54665;SDS011;40566;50.006;36.180;2024-03-02T09:23:50;25.42;;;8.05;;
54665;SDS011;40566;50.006;36.180;2024-03-02T09:29:10;17.88;;;4.72;;
54665;SDS011;40566;50.006;36.180;2024-03-02T09:34:29;15.30;;;3.38;;
54665;SDS011;40566;50.006;36.180;2024-03-02T09:39:48;15.10;;;3.58;;
54665;SDS011;40566;50.006;36.180;2024-03-02T09:45:07;10.80;;;3.67;;
54665;SDS011;40566;50.006;36.180;2024-03-02T09:50:27;12.02;;;3.28;;
54665;SDS011;40566;50.006;36.180;2024-03-02T09:55:46;18.27;;;4.13;;
54665;SDS011;40566;50.006;36.180;2024-03-02T10:01:06;15.25;;;4.03;;
54665;SDS011;40566;50.006;36.180;2024-03-02T10:06:26;14.63;;;3.85;;
54665;SDS011;40566;50.006;36.180;2024-03-02T10:11:46;12.00;;;4.38;;
54665;SDS011;40566;50.006;36.180;2024-03-02T10:17:07;20.65;;;4.70;;
54665;SDS011;40566;50.006;36.180;2024-03-02T10:22:27;12.35;;;3.78;;
54665;SDS011;40566;50.006;36.180;2024-03-02T10:27:47;10.82;;;4.32;;
54665;SDS011;40566;50.006;36.180;2024-03-02T10:33:09;14.85;;;4.90;;
54665;SDS011;40566;50.006;36.180;2024-03-02T10:38:28;12.65;;;4.20;;
54665;SDS011;40566;50.006;36.180;2024-03-02T10:43:47;14.32;;;4.53;;
54665;SDS011;40566;50.006;36.180;2024-03-02T10:49:06;18.52;;;6.05;;
54665;SDS011;40566;50.006;36.180;2024-03-02T10:54:26;12.50;;;4.32;;
54665;SDS011;40566;50.006;36.180;2024-03-02T10:59:51;8.13;;;3.05;;
54665;SDS011;40566;50.006;36.180;2024-03-02T11:05:11;11.30;;;4.00;;
54665;SDS011;40566;50.006;36.180;2024-03-02T11:10:34;8.73;;;2.35;;
54665;SDS011;40566;50.006;36.180;2024-03-02T11:15:58;13.15;;;3.42;;
54665;SDS011;40566;50.006;36.180;2024-03-02T11:21:22;15.20;;;5.30;;
54665;SDS011;40566;50.006;36.180;2024-03-02T11:26:42;13.23;;;4.63;;
54665;SDS011;40566;50.006;36.180;2024-03-02T11:32:02;11.00;;;4.30;;
54665;SDS011;40566;50.006;36.180;2024-03-02T11:37:21;11.80;;;5.05;;
54665;SDS011;40566;50.006;36.180;2024-03-02T11:42:41;10.40;;;4.45;;
54665;SDS011;40566;50.006;36.180;2024-03-02T11:48:01;10.48;;;3.67;;
54665;SDS011;40566;50.006;36.180;2024-03-02T11:53:24;11.85;;;3.92;;
54665;SDS011;40566;50.006;36.180;2024-03-02T11:58:46;11.88;;;3.50;;
54665;SDS011;40566;50.006;36.180;2024-03-02T12:04:06;13.40;;;4.10;;
54665;SDS011;40566;50.006;36.180;2024-03-02T12:09:29;10.80;;;3.83;;
54665;SDS011;40566;50.006;36.180;2024-03-02T12:14:52;11.52;;;4.07;;
54665;SDS011;40566;50.006;36.180;2024-03-02T12:20:14;14.32;;;4.65;;
54665;SDS011;40566;50.006;36.180;2024-03-02T12:25:32;11.38;;;4.85;;
54665;SDS011;40566;50.006;36.180;2024-03-02T12:30:52;10.13;;;3.92;;
54665;SDS011;40566;50.006;36.180;2024-03-02T12:36:13;9.30;;;3.80;;
54665;SDS011;40566;50.006;36.180;2024-03-02T12:41:32;15.05;;;5.68;;
54665;SDS011;40566;50.006;36.180;2024-03-02T12:46:51;11.27;;;4.03;;
54665;SDS011;40566;50.006;36.180;2024-03-02T12:52:12;10.07;;;4.18;;
54665;SDS011;40566;50.006;36.180;2024-03-02T12:57:32;11.55;;;3.85;;
54665;SDS011;40566;50.006;36.180;2024-03-02T13:02:52;11.43;;;4.13;;
54665;SDS011;40566;50.006;36.180;2024-03-02T13:08:11;9.63;;;3.38;;
54665;SDS011;40566;50.006;36.180;2024-03-02T13:13:31;26.88;;;9.55;;
54665;SDS011;40566;50.006;36.180;2024-03-02T13:18:50;10.02;;;3.85;;
54665;SDS011;40566;50.006;36.180;2024-03-02T13:24:09;11.38;;;4.20;;
54665;SDS011;40566;50.006;36.180;2024-03-02T13:29:28;11.77;;;4.70;;
54665;SDS011;40566;50.006;36.180;2024-03-02T13:34:47;13.65;;;2.72;;
54665;SDS011;40566;50.006;36.180;2024-03-02T13:40:06;11.13;;;3.88;;
54665;SDS011;40566;50.006;36.180;2024-03-02T13:45:31;10.18;;;2.88;;
54665;SDS011;40566;50.006;36.180;2024-03-02T13:50:50;11.43;;;2.33;;
54665;SDS011;40566;50.006;36.180;2024-03-02T13:56:11;5.10;;;2.30;;
54665;SDS011;40566;50.006;36.180;2024-03-02T14:01:30;8.80;;;2.85;;
54665;SDS011;40566;50.006;36.180;2024-03-02T14:06:50;10.18;;;2.33;;
54665;SDS011;40566;50.006;36.180;2024-03-02T14:12:10;9.27;;;2.13;;
54665;SDS011;40566;50.006;36.180;2024-03-02T14:17:29;5.50;;;2.03;;
54665;SDS011;40566;50.006;36.180;2024-03-02T14:22:50;10.27;;;4.05;;
54665;SDS011;40566;50.006;36.180;2024-03-02T14:28:09;10.93;;;4.13;;
54665;SDS011;40566;50.006;36.180;2024-03-02T14:33:28;6.63;;;2.40;;
54665;SDS011;40566;50.006;36.180;2024-03-02T14:38:47;10.57;;;3.88;;
54665;SDS011;40566;50.006;36.180;2024-03-02T14:44:07;11.30;;;3.90;;
54665;SDS011;40566;50.006;36.180;2024-03-02T14:49:26;8.23;;;3.58;;
54665;SDS011;40566;50.006;36.180;2024-03-02T14:54:45;21.65;;;10.10;;
54665;SDS011;40566;50.006;36.180;2024-03-02T15:00:06;5.30;;;1.65;;
54665;SDS011;40566;50.006;36.180;2024-03-02T15:05:26;3.88;;;1.63;;
54665;SDS011;40566;50.006;36.180;2024-03-02T15:10:45;4.93;;;1.88;;
54665;SDS011;40566;50.006;36.180;2024-03-02T15:16:04;12.20;;;2.33;;
54665;SDS011;40566;50.006;36.180;2024-03-02T15:21:24;5.35;;;2.13;;
54665;SDS011;40566;50.006;36.180;2024-03-02T15:26:43;6.75;;;1.98;;
54665;SDS011;40566;50.006;36.180;2024-03-02T15:32:02;13.07;;;2.60;;
54665;SDS011;40566;50.006;36.180;2024-03-02T15:37:25;4.07;;;2.17;;
54665;SDS011;40566;50.006;36.180;2024-03-02T15:42:44;16.40;;;2.13;;
54665;SDS011;40566;50.006;36.180;2024-03-02T15:48:03;6.57;;;1.95;;
54665;SDS011;40566;50.006;36.180;2024-03-02T15:53:23;5.25;;;2.13;;
54665;SDS011;40566;50.006;36.180;2024-03-02T15:58:42;6.18;;;1.70;;
54665;SDS011;40566;50.006;36.180;2024-03-02T16:04:00;4.95;;;2.10;;
54665;SDS011;40566;50.006;36.180;2024-03-02T16:09:21;5.55;;;1.75;;
54665;SDS011;40566;50.006;36.180;2024-03-02T16:14:40;6.13;;;1.58;;
54665;SDS011;40566;50.006;36.180;2024-03-02T16:19:59;11.85;;;1.75;;
54665;SDS011;40566;50.006;36.180;2024-03-02T16:25:18;5.22;;;2.10;;
54665;SDS011;40566;50.006;36.180;2024-03-02T16:30:37;8.20;;;3.05;;
54665;SDS011;40566;50.006;36.180;2024-03-02T16:35:56;5.13;;;1.80;;
54665;SDS011;40566;50.006;36.180;2024-03-02T16:41:15;6.90;;;2.63;;
54665;SDS011;40566;50.006;36.180;2024-03-02T16:46:36;4.60;;;1.95;;
54665;SDS011;40566;50.006;36.180;2024-03-02T16:51:59;5.65;;;2.58;;
54665;SDS011;40566;50.006;36.180;2024-03-02T16:57:18;5.00;;;1.92;;
54665;SDS011;40566;50.006;36.180;2024-03-02T17:02:36;6.13;;;1.75;;
54665;SDS011;40566;50.006;36.180;2024-03-02T17:07:55;12.57;;;1.95;;
54665;SDS011;40566;50.006;36.180;2024-03-02T17:13:16;4.47;;;1.27;;
54665;SDS011;40566;50.006;36.180;2024-03-02T17:18:35;11.25;;;2.45;;
54665;SDS011;40566;50.006;36.180;2024-03-02T17:23:54;3.13;;;1.05;;
54665;SDS011;40566;50.006;36.180;2024-03-02T17:29:14;4.60;;;1.77;;
54665;SDS011;40566;50.006;36.180;2024-03-02T17:34:33;3.50;;;1.27;;
54665;SDS011;40566;50.006;36.180;2024-03-02T17:39:52;2.38;;;1.08;;
54665;SDS011;40566;50.006;36.180;2024-03-02T17:45:13;11.00;;;1.75;;
54665;SDS011;40566;50.006;36.180;2024-03-02T17:50:32;5.63;;;1.25;;
54665;SDS011;40566;50.006;36.180;2024-03-02T17:55:50;1.65;;;0.90;;
54665;SDS011;40566;50.006;36.180;2024-03-02T18:01:09;1.95;;;0.63;;
54665;SDS011;40566;50.006;36.180;2024-03-02T18:06:33;1.80;;;0.65;;
54665;SDS011;40566;50.006;36.180;2024-03-02T18:11:54;4.68;;;0.90;;
54665;SDS011;40566;50.006;36.180;2024-03-02T18:17:13;2.00;;;0.70;;
54665;SDS011;40566;50.006;36.180;2024-03-02T18:22:32;3.20;;;0.88;;
54665;SDS011;40566;50.006;36.180;2024-03-02T18:27:51;1.70;;;0.73;;
54665;SDS011;40566;50.006;36.180;2024-03-02T18:33:10;3.53;;;1.33;;
54665;SDS011;40566;50.006;36.180;2024-03-02T18:38:29;5.20;;;1.02;;
54665;SDS011;40566;50.006;36.180;2024-03-02T18:43:48;2.47;;;1.25;;
54665;SDS011;40566;50.006;36.180;2024-03-02T18:49:07;2.65;;;0.82;;
54665;SDS011;40566;50.006;36.180;2024-03-02T18:54:27;2.22;;;1.23;;
54665;SDS011;40566;50.006;36.180;2024-03-02T18:59:46;3.45;;;1.33;;
54665;SDS011;40566;50.006;36.180;2024-03-02T19:05:05;2.42;;;1.00;;
54665;SDS011;40566;50.006;36.180;2024-03-02T19:10:24;2.00;;;0.77;;
54665;SDS011;40566;50.006;36.180;2024-03-02T19:15:43;3.08;;;1.30;;
54665;SDS011;40566;50.006;36.180;2024-03-02T19:21:02;0.98;;;0.60;;
54665;SDS011;40566;50.006;36.180;2024-03-02T19:26:21;14.02;;;1.25;;
54665;SDS011;40566;50.006;36.180;2024-03-02T19:31:42;2.72;;;1.08;;
54665;SDS011;40566;50.006;36.180;2024-03-02T19:37:01;1.23;;;0.80;;
54665;SDS011;40566;50.006;36.180;2024-03-02T19:42:21;2.75;;;1.20;;
54665;SDS011;40566;50.006;36.180;2024-03-02T19:47:39;3.38;;;1.02;;
54665;SDS011;40566;50.006;36.180;2024-03-02T19:53:02;0.68;;;0.52;;
54665;SDS011;40566;50.006;36.180;2024-03-02T19:58:22;0.52;;;0.43;;
54665;SDS011;40566;50.006;36.180;2024-03-02T20:03:40;1.45;;;0.95;;
54665;SDS011;40566;50.006;36.180;2024-03-02T20:08:59;2.47;;;1.05;;
54665;SDS011;40566;50.006;36.180;2024-03-02T20:14:19;1.55;;;0.50;;
54665;SDS011;40566;50.006;36.180;2024-03-02T20:19:39;1.70;;;0.77;;
54665;SDS011;40566;50.006;36.180;2024-03-02T20:24:58;1.25;;;0.50;;
54665;SDS011;40566;50.006;36.180;2024-03-02T20:30:17;1.20;;;0.68;;
54665;SDS011;40566;50.006;36.180;2024-03-02T20:35:37;3.45;;;0.77;;
54665;SDS011;40566;50.006;36.180;2024-03-02T20:40:57;1.88;;;1.02;;
54665;SDS011;40566;50.006;36.180;2024-03-02T20:46:15;1.65;;;0.80;;
54665;SDS011;40566;50.006;36.180;2024-03-02T20:51:34;2.22;;;0.88;;
54665;SDS011;40566;50.006;36.180;2024-03-02T20:56:54;1.10;;;0.70;;
54665;SDS011;40566;50.006;36.180;2024-03-02T21:02:14;0.28;;;0.28;;
54665;SDS011;40566;50.006;36.180;2024-03-02T21:07:33;3.90;;;0.82;;
54665;SDS011;40566;50.006;36.180;2024-03-02T21:12:53;1.08;;;0.50;;
54665;SDS011;40566;50.006;36.180;2024-03-02T21:18:13;0.85;;;0.40;;
54665;SDS011;40566;50.006;36.180;2024-03-02T21:23:31;0.68;;;0.65;;
54665;SDS011;40566;50.006;36.180;2024-03-02T21:28:52;1.67;;;0.63;;
54665;SDS011;40566;50.006;36.180;2024-03-02T21:34:11;0.85;;;0.47;;
54665;SDS011;40566;50.006;36.180;2024-03-02T21:39:30;0.85;;;0.70;;
54665;SDS011;40566;50.006;36.180;2024-03-02T21:44:49;1.08;;;0.68;;
54665;SDS011;40566;50.006;36.180;2024-03-02T21:50:08;1.55;;;0.68;;
54665;SDS011;40566;50.006;36.180;2024-03-02T21:55:28;0.57;;;0.57;;
54665;SDS011;40566;50.006;36.180;2024-03-02T22:00:47;3.28;;;1.05;;
54665;SDS011;40566;50.006;36.180;2024-03-02T22:06:06;0.30;;;0.30;;
54665;SDS011;40566;50.006;36.180;2024-03-02T22:11:25;0.95;;;0.70;;
54665;SDS011;40566;50.006;36.180;2024-03-02T22:16:44;6.88;;;1.17;;
54665;SDS011;40566;50.006;36.180;2024-03-02T22:22:04;2.53;;;1.00;;
54665;SDS011;40566;50.006;36.180;2024-03-02T22:27:23;1.58;;;0.90;;
54665;SDS011;40566;50.006;36.180;2024-03-02T22:32:42;1.27;;;0.70;;
54665;SDS011;40566;50.006;36.180;2024-03-02T22:38:03;1.55;;;0.50;;
54665;SDS011;40566;50.006;36.180;2024-03-02T22:43:22;0.85;;;0.57;;
54665;SDS011;40566;50.006;36.180;2024-03-02T22:48:41;2.72;;;1.17;;
54665;SDS011;40566;50.006;36.180;2024-03-02T22:54:00;0.85;;;0.52;;
54665;SDS011;40566;50.006;36.180;2024-03-02T22:59:19;2.17;;;0.95;;
54665;SDS011;40566;50.006;36.180;2024-03-02T23:04:39;1.67;;;0.82;;
54665;SDS011;40566;50.006;36.180;2024-03-02T23:09:58;0.63;;;0.60;;
54665;SDS011;40566;50.006;36.180;2024-03-02T23:15:17;28.65;;;1.75;;
54665;SDS011;40566;50.006;36.180;2024-03-02T23:20:36;1.00;;;0.50;;
54665;SDS011;40566;50.006;36.180;2024-03-02T23:25:55;1.27;;;0.70;;
54665;SDS011;40566;50.006;36.180;2024-03-02T23:31:14;1.92;;;0.88;;
54665;SDS011;40566;50.006;36.180;2024-03-02T23:36:34;3.00;;;0.90;;
54665;SDS011;40566;50.006;36.180;2024-03-02T23:41:53;1.17;;;0.73;;
54665;SDS011;40566;50.006;36.180;2024-03-02T23:47:11;1.23;;;0.70;;
54665;SDS011;40566;50.006;36.180;2024-03-02T23:52:30;1.92;;;1.08;;
54665;SDS011;40566;50.006;36.180;2024-03-02T23:57:50;0.77;;;0.50;;
